sensor_id;sensor_type;location;lat;lon;timestamp;temperature;humidity
18047;DHT22;9148;51.454;13.862;2024-02-23T00:02:24;10.50;99.90
18047;DHT22;9148;51.454;13.862;2024-02-23T00:04:50;10.50;99.90
18047;DHT22;9148;51.454;13.862;2024-02-23T00:07:16;10.50;99.90
18047;DHT22;9148;51.454;13.862;2024-02-23T00:09:41;10.50;99.90
18047;DHT22;9148;51.454;13.862;2024-02-23T00:12:07;10.50;99.90
18047;DHT22;9148;51.454;13.862;2024-02-23T00:14:34;10.50;99.90
18047;DHT22;9148;51.454;13.862;2024-02-23T00:17:02;10.50;99.90
18047;DHT22;9148;51.454;13.862;2024-02-23T00:19:29;10.50;99.90
18047;DHT22;9148;51.454;13.862;2024-02-23T00:21:55;10.60;99.90
18047;DHT22;9148;51.454;13.862;2024-02-23T00:24:21;10.60;99.90
18047;DHT22;9148;51.454;13.862;2024-02-23T00:26:48;10.70;99.90
18047;DHT22;9148;51.454;13.862;2024-02-23T00:29:13;10.80;99.90
18047;DHT22;9148;51.454;13.862;2024-02-23T00:31:40;10.80;99.90
18047;DHT22;9148;51.454;13.862;2024-02-23T00:34:06;10.90;99.90
18047;DHT22;9148;51.454;13.862;2024-02-23T00:36:38;10.90;99.90
18047;DHT22;9148;51.454;13.862;2024-02-23T00:39:07;11.00;99.90
18047;DHT22;9148;51.454;13.862;2024-02-23T00:41:33;11.20;99.90
18047;DHT22;9148;51.454;13.862;2024-02-23T00:43:59;11.30;99.90
18047;DHT22;9148;51.454;13.862;2024-02-23T00:46:25;11.30;99.90
18047;DHT22;9148;51.454;13.862;2024-02-23T00:48:51;11.50;99.90
18047;DHT22;9148;51.454;13.862;2024-02-23T00:51:16;11.50;99.90
18047;DHT22;9148;51.454;13.862;2024-02-23T00:53:42;11.60;99.90
18047;DHT22;9148;51.454;13.862;2024-02-23T00:56:08;11.30;99.90
18047;DHT22;9148;51.454;13.862;2024-02-23T00:58:33;11.80;99.90
18047;DHT22;9148;51.454;13.862;2024-02-23T01:01:02;11.90;99.90
18047;DHT22;9148;51.454;13.862;2024-02-23T01:03:28;12.00;99.90
18047;DHT22;9148;51.454;13.862;2024-02-23T01:05:54;12.00;99.90
18047;DHT22;9148;51.454;13.862;2024-02-23T01:08:19;12.10;99.90
18047;DHT22;9148;51.454;13.862;2024-02-23T01:10:45;12.20;99.90
18047;DHT22;9148;51.454;13.862;2024-02-23T01:13:11;12.30;99.90
18047;DHT22;9148;51.454;13.862;2024-02-23T01:15:37;12.30;99.90
18047;DHT22;9148;51.454;13.862;2024-02-23T01:18:04;12.30;99.90
18047;DHT22;9148;51.454;13.862;2024-02-23T01:20:31;12.40;99.90
18047;DHT22;9148;51.454;13.862;2024-02-23T01:22:57;12.50;99.90
18047;DHT22;9148;51.454;13.862;2024-02-23T01:25:22;12.50;99.90
18047;DHT22;9148;51.454;13.862;2024-02-23T01:27:48;12.60;99.90
18047;DHT22;9148;51.454;13.862;2024-02-23T01:30:14;12.60;99.90
18047;DHT22;9148;51.454;13.862;2024-02-23T01:32:40;12.60;99.90
18047;DHT22;9148;51.454;13.862;2024-02-23T01:35:06;12.60;99.90
18047;DHT22;9148;51.454;13.862;2024-02-23T01:37:33;12.60;99.90
18047;DHT22;9148;51.454;13.862;2024-02-23T01:39:59;12.50;99.90
18047;DHT22;9148;51.454;13.862;2024-02-23T01:42:26;12.50;99.90
18047;DHT22;9148;51.454;13.862;2024-02-23T01:44:52;12.50;99.90
18047;DHT22;9148;51.454;13.862;2024-02-23T01:47:18;12.60;99.90
18047;DHT22;9148;51.454;13.862;2024-02-23T01:49:46;12.60;99.90
18047;DHT22;9148;51.454;13.862;2024-02-23T01:52:13;12.60;99.90
18047;DHT22;9148;51.454;13.862;2024-02-23T01:54:40;12.60;99.90
18047;DHT22;9148;51.454;13.862;2024-02-23T01:57:06;12.60;99.90
18047;DHT22;9148;51.454;13.862;2024-02-23T01:59:35;12.60;99.90
18047;DHT22;9148;51.454;13.862;2024-02-23T02:02:03;12.70;99.90
18047;DHT22;9148;51.454;13.862;2024-02-23T02:04:29;12.60;99.90
18047;DHT22;9148;51.454;13.862;2024-02-23T02:06:55;12.60;99.90
18047;DHT22;9148;51.454;13.862;2024-02-23T02:09:22;12.60;99.90
18047;DHT22;9148;51.454;13.862;2024-02-23T02:11:48;12.60;99.90
18047;DHT22;9148;51.454;13.862;2024-02-23T02:14:15;12.60;99.90
18047;DHT22;9148;51.454;13.862;2024-02-23T02:16:42;12.60;99.90
18047;DHT22;9148;51.454;13.862;2024-02-23T02:19:12;12.50;99.90
18047;DHT22;9148;51.454;13.862;2024-02-23T02:21:40;12.60;99.90
18047;DHT22;9148;51.454;13.862;2024-02-23T02:24:06;12.60;99.90
18047;DHT22;9148;51.454;13.862;2024-02-23T02:26:32;12.50;99.90
18047;DHT22;9148;51.454;13.862;2024-02-23T02:28:58;12.60;99.90
18047;DHT22;9148;51.454;13.862;2024-02-23T02:31:23;12.50;99.90
18047;DHT22;9148;51.454;13.862;2024-02-23T02:33:49;12.50;99.90
18047;DHT22;9148;51.454;13.862;2024-02-23T02:36:15;12.50;99.90
18047;DHT22;9148;51.454;13.862;2024-02-23T02:38:40;12.50;99.90
18047;DHT22;9148;51.454;13.862;2024-02-23T02:41:06;12.40;99.90
18047;DHT22;9148;51.454;13.862;2024-02-23T02:43:32;12.40;99.90
18047;DHT22;9148;51.454;13.862;2024-02-23T02:45:58;12.30;99.90
18047;DHT22;9148;51.454;13.862;2024-02-23T02:48:24;12.40;99.90
18047;DHT22;9148;51.454;13.862;2024-02-23T02:50:50;12.30;99.90
18047;DHT22;9148;51.454;13.862;2024-02-23T02:53:17;12.30;99.90
18047;DHT22;9148;51.454;13.862;2024-02-23T02:55:43;12.30;99.90
18047;DHT22;9148;51.454;13.862;2024-02-23T02:58:11;12.20;99.90
18047;DHT22;9148;51.454;13.862;2024-02-23T03:00:38;12.20;99.90
18047;DHT22;9148;51.454;13.862;2024-02-23T03:03:04;12.10;99.90
18047;DHT22;9148;51.454;13.862;2024-02-23T03:05:29;12.20;99.90
18047;DHT22;9148;51.454;13.862;2024-02-23T03:07:55;12.20;99.90
18047;DHT22;9148;51.454;13.862;2024-02-23T03:10:21;12.10;99.90
18047;DHT22;9148;51.454;13.862;2024-02-23T03:12:46;12.10;99.90
18047;DHT22;9148;51.454;13.862;2024-02-23T03:15:12;12.00;99.90
18047;DHT22;9148;51.454;13.862;2024-02-23T03:17:38;12.10;99.90
18047;DHT22;9148;51.454;13.862;2024-02-23T03:20:04;11.90;99.90
18047;DHT22;9148;51.454;13.862;2024-02-23T03:22:37;12.00;99.80
18047;DHT22;9148;51.454;13.862;2024-02-23T03:25:04;12.00;99.80
18047;DHT22;9148;51.454;13.862;2024-02-23T03:27:34;11.90;99.50
18047;DHT22;9148;51.454;13.862;2024-02-23T03:30:04;11.90;98.80
18047;DHT22;9148;51.454;13.862;2024-02-23T03:32:31;11.80;98.30
18047;DHT22;9148;51.454;13.862;2024-02-23T03:35:02;11.80;98.20
18047;DHT22;9148;51.454;13.862;2024-02-23T03:37:28;11.80;97.70
18047;DHT22;9148;51.454;13.862;2024-02-23T03:39:54;11.80;97.20
18047;DHT22;9148;51.454;13.862;2024-02-23T03:42:20;11.70;97.20
18047;DHT22;9148;51.454;13.862;2024-02-23T03:44:45;11.70;96.90
18047;DHT22;9148;51.454;13.862;2024-02-23T03:47:11;11.60;97.30
18047;DHT22;9148;51.454;13.862;2024-02-23T03:49:37;11.60;96.80
18047;DHT22;9148;51.454;13.862;2024-02-23T03:52:04;11.50;96.90
18047;DHT22;9148;51.454;13.862;2024-02-23T03:54:30;11.50;96.80
18047;DHT22;9148;51.454;13.862;2024-02-23T03:56:57;11.40;96.50
18047;DHT22;9148;51.454;13.862;2024-02-23T03:59:22;11.40;96.60
18047;DHT22;9148;51.454;13.862;2024-02-23T04:01:49;11.40;96.40
18047;DHT22;9148;51.454;13.862;2024-02-23T04:04:14;11.30;96.00
18047;DHT22;9148;51.454;13.862;2024-02-23T04:06:40;11.30;96.30
18047;DHT22;9148;51.454;13.862;2024-02-23T04:09:06;11.40;96.30
18047;DHT22;9148;51.454;13.862;2024-02-23T04:11:32;11.30;96.50
18047;DHT22;9148;51.454;13.862;2024-02-23T04:13:58;11.30;96.40
18047;DHT22;9148;51.454;13.862;2024-02-23T04:16:24;11.20;95.60
18047;DHT22;9148;51.454;13.862;2024-02-23T04:18:50;11.10;95.80
18047;DHT22;9148;51.454;13.862;2024-02-23T04:21:16;11.10;95.50
18047;DHT22;9148;51.454;13.862;2024-02-23T04:23:43;11.10;95.70
18047;DHT22;9148;51.454;13.862;2024-02-23T04:26:08;11.00;95.40
18047;DHT22;9148;51.454;13.862;2024-02-23T04:28:37;10.90;95.00
18047;DHT22;9148;51.454;13.862;2024-02-23T04:31:03;10.90;95.10
18047;DHT22;9148;51.454;13.862;2024-02-23T04:33:29;10.70;94.90
18047;DHT22;9148;51.454;13.862;2024-02-23T04:35:54;10.70;95.00
18047;DHT22;9148;51.454;13.862;2024-02-23T04:38:20;10.70;95.40
18047;DHT22;9148;51.454;13.862;2024-02-23T04:40:46;10.60;95.80
18047;DHT22;9148;51.454;13.862;2024-02-23T04:43:11;10.60;95.40
18047;DHT22;9148;51.454;13.862;2024-02-23T04:45:37;10.50;95.00
18047;DHT22;9148;51.454;13.862;2024-02-23T04:48:03;10.50;95.20
18047;DHT22;9148;51.454;13.862;2024-02-23T04:50:29;10.50;95.60
18047;DHT22;9148;51.454;13.862;2024-02-23T04:52:54;10.50;95.00
18047;DHT22;9148;51.454;13.862;2024-02-23T04:55:20;10.50;94.40
18047;DHT22;9148;51.454;13.862;2024-02-23T04:57:46;10.60;94.80
18047;DHT22;9148;51.454;13.862;2024-02-23T05:00:12;10.50;95.30
18047;DHT22;9148;51.454;13.862;2024-02-23T05:02:38;10.40;95.70
18047;DHT22;9148;51.454;13.862;2024-02-23T05:05:04;10.30;96.00
18047;DHT22;9148;51.454;13.862;2024-02-23T05:07:34;10.40;96.50
18047;DHT22;9148;51.454;13.862;2024-02-23T05:09:59;10.30;96.70
18047;DHT22;9148;51.454;13.862;2024-02-23T05:12:26;10.20;96.80
18047;DHT22;9148;51.454;13.862;2024-02-23T05:14:51;10.10;97.20
18047;DHT22;9148;51.454;13.862;2024-02-23T05:17:17;10.10;97.30
18047;DHT22;9148;51.454;13.862;2024-02-23T05:19:43;10.00;97.40
18047;DHT22;9148;51.454;13.862;2024-02-23T05:22:09;10.00;97.30
18047;DHT22;9148;51.454;13.862;2024-02-23T05:24:34;9.90;97.30
18047;DHT22;9148;51.454;13.862;2024-02-23T05:27:00;9.90;97.30
18047;DHT22;9148;51.454;13.862;2024-02-23T05:29:28;9.80;96.90
18047;DHT22;9148;51.454;13.862;2024-02-23T05:31:54;9.70;96.90
18047;DHT22;9148;51.454;13.862;2024-02-23T05:34:20;9.70;97.20
18047;DHT22;9148;51.454;13.862;2024-02-23T05:36:46;9.70;97.30
18047;DHT22;9148;51.454;13.862;2024-02-23T05:39:14;9.70;97.30
18047;DHT22;9148;51.454;13.862;2024-02-23T05:41:43;9.70;97.20
18047;DHT22;9148;51.454;13.862;2024-02-23T05:44:09;9.60;97.10
18047;DHT22;9148;51.454;13.862;2024-02-23T05:46:35;9.60;97.10
18047;DHT22;9148;51.454;13.862;2024-02-23T05:49:02;9.60;96.90
18047;DHT22;9148;51.454;13.862;2024-02-23T05:51:29;9.60;96.90
18047;DHT22;9148;51.454;13.862;2024-02-23T05:53:56;9.60;96.60
18047;DHT22;9148;51.454;13.862;2024-02-23T05:56:22;9.50;96.60
18047;DHT22;9148;51.454;13.862;2024-02-23T05:58:50;9.50;96.40
18047;DHT22;9148;51.454;13.862;2024-02-23T06:01:16;9.50;96.50
18047;DHT22;9148;51.454;13.862;2024-02-23T06:03:43;9.50;96.20
18047;DHT22;9148;51.454;13.862;2024-02-23T06:06:09;9.40;96.30
18047;DHT22;9148;51.454;13.862;2024-02-23T06:08:35;9.50;96.50
18047;DHT22;9148;51.454;13.862;2024-02-23T06:11:02;9.40;96.60
18047;DHT22;9148;51.454;13.862;2024-02-23T06:13:30;9.40;96.40
18047;DHT22;9148;51.454;13.862;2024-02-23T06:15:55;9.30;96.40
18047;DHT22;9148;51.454;13.862;2024-02-23T06:18:21;9.30;96.40
18047;DHT22;9148;51.454;13.862;2024-02-23T06:20:48;9.30;96.50
18047;DHT22;9148;51.454;13.862;2024-02-23T06:23:15;9.30;96.60
18047;DHT22;9148;51.454;13.862;2024-02-23T06:25:41;9.20;96.70
18047;DHT22;9148;51.454;13.862;2024-02-23T06:28:07;9.20;96.70
18047;DHT22;9148;51.454;13.862;2024-02-23T06:30:32;9.20;96.90
18047;DHT22;9148;51.454;13.862;2024-02-23T06:32:58;9.10;96.90
18047;DHT22;9148;51.454;13.862;2024-02-23T06:35:24;9.20;97.00
18047;DHT22;9148;51.454;13.862;2024-02-23T06:37:49;9.10;97.10
18047;DHT22;9148;51.454;13.862;2024-02-23T06:40:15;9.10;97.20
18047;DHT22;9148;51.454;13.862;2024-02-23T06:42:41;9.00;97.30
18047;DHT22;9148;51.454;13.862;2024-02-23T06:45:06;9.00;97.40
18047;DHT22;9148;51.454;13.862;2024-02-23T06:47:33;9.00;97.50
18047;DHT22;9148;51.454;13.862;2024-02-23T06:49:59;9.00;97.60
18047;DHT22;9148;51.454;13.862;2024-02-23T06:52:25;8.90;97.60
18047;DHT22;9148;51.454;13.862;2024-02-23T06:54:51;9.00;97.70
18047;DHT22;9148;51.454;13.862;2024-02-23T06:57:17;9.00;97.80
18047;DHT22;9148;51.454;13.862;2024-02-23T06:59:43;8.90;97.90
18047;DHT22;9148;51.454;13.862;2024-02-23T07:02:09;9.20;98.10
18047;DHT22;9148;51.454;13.862;2024-02-23T07:04:34;8.90;98.10
18047;DHT22;9148;51.454;13.862;2024-02-23T07:07:00;8.90;98.00
18047;DHT22;9148;51.454;13.862;2024-02-23T07:09:32;8.90;97.90
18047;DHT22;9148;51.454;13.862;2024-02-23T07:11:58;9.00;97.90
18047;DHT22;9148;51.454;13.862;2024-02-23T07:14:24;8.90;97.60
18047;DHT22;9148;51.454;13.862;2024-02-23T07:16:50;9.00;97.70
18047;DHT22;9148;51.454;13.862;2024-02-23T07:19:16;9.10;97.60
18047;DHT22;9148;51.454;13.862;2024-02-23T07:21:42;9.00;97.40
18047;DHT22;9148;51.454;13.862;2024-02-23T07:24:08;8.90;97.30
18047;DHT22;9148;51.454;13.862;2024-02-23T07:26:33;9.00;97.50
18047;DHT22;9148;51.454;13.862;2024-02-23T07:28:59;9.00;97.40
18047;DHT22;9148;51.454;13.862;2024-02-23T07:31:25;9.00;97.40
18047;DHT22;9148;51.454;13.862;2024-02-23T07:33:50;9.00;97.20
18047;DHT22;9148;51.454;13.862;2024-02-23T07:36:17;9.10;97.10
18047;DHT22;9148;51.454;13.862;2024-02-23T07:38:43;9.20;97.00
18047;DHT22;9148;51.454;13.862;2024-02-23T07:41:11;9.30;96.90
18047;DHT22;9148;51.454;13.862;2024-02-23T07:43:38;9.30;96.70
18047;DHT22;9148;51.454;13.862;2024-02-23T07:46:04;9.30;96.80
18047;DHT22;9148;51.454;13.862;2024-02-23T07:48:34;9.30;96.70
18047;DHT22;9148;51.454;13.862;2024-02-23T07:51:01;9.30;96.90
18047;DHT22;9148;51.454;13.862;2024-02-23T07:53:27;9.30;96.90
18047;DHT22;9148;51.454;13.862;2024-02-23T07:55:53;9.30;97.00
18047;DHT22;9148;51.454;13.862;2024-02-23T07:58:18;9.20;96.80
18047;DHT22;9148;51.454;13.862;2024-02-23T08:00:44;9.20;96.80
18047;DHT22;9148;51.454;13.862;2024-02-23T08:03:10;9.20;96.90
18047;DHT22;9148;51.454;13.862;2024-02-23T08:05:36;9.10;96.90
18047;DHT22;9148;51.454;13.862;2024-02-23T08:08:02;9.10;97.10
18047;DHT22;9148;51.454;13.862;2024-02-23T08:10:28;10.10;97.60
18047;DHT22;9148;51.454;13.862;2024-02-23T08:12:53;9.10;97.30
18047;DHT22;9148;51.454;13.862;2024-02-23T08:15:19;9.10;97.40
18047;DHT22;9148;51.454;13.862;2024-02-23T08:17:45;9.10;97.70
18047;DHT22;9148;51.454;13.862;2024-02-23T08:20:10;9.00;97.50
18047;DHT22;9148;51.454;13.862;2024-02-23T08:22:36;9.00;97.60
18047;DHT22;9148;51.454;13.862;2024-02-23T08:25:02;9.00;97.30
18047;DHT22;9148;51.454;13.862;2024-02-23T08:27:28;9.00;97.30
18047;DHT22;9148;51.454;13.862;2024-02-23T08:29:54;9.00;97.40
18047;DHT22;9148;51.454;13.862;2024-02-23T08:32:19;9.00;97.40
18047;DHT22;9148;51.454;13.862;2024-02-23T08:34:45;9.00;97.40
18047;DHT22;9148;51.454;13.862;2024-02-23T08:37:12;9.60;97.60
18047;DHT22;9148;51.454;13.862;2024-02-23T08:39:38;9.00;97.60
18047;DHT22;9148;51.454;13.862;2024-02-23T08:42:03;9.10;97.80
18047;DHT22;9148;51.454;13.862;2024-02-23T08:44:29;9.30;97.80
18047;DHT22;9148;51.454;13.862;2024-02-23T08:46:55;9.10;97.60
18047;DHT22;9148;51.454;13.862;2024-02-23T08:49:20;9.70;97.80
18047;DHT22;9148;51.454;13.862;2024-02-23T08:51:46;9.00;97.50
18047;DHT22;9148;51.454;13.862;2024-02-23T08:54:12;9.00;97.60
18047;DHT22;9148;51.454;13.862;2024-02-23T08:56:38;9.00;97.80
18047;DHT22;9148;51.454;13.862;2024-02-23T08:59:08;9.00;97.90
18047;DHT22;9148;51.454;13.862;2024-02-23T09:01:37;9.10;98.10
18047;DHT22;9148;51.454;13.862;2024-02-23T09:04:03;9.00;98.20
18047;DHT22;9148;51.454;13.862;2024-02-23T09:06:28;9.70;98.60
18047;DHT22;9148;51.454;13.862;2024-02-23T09:08:54;9.20;98.50
18047;DHT22;9148;51.454;13.862;2024-02-23T09:11:20;9.20;98.50
18047;DHT22;9148;51.454;13.862;2024-02-23T09:13:45;9.40;98.50
18047;DHT22;9148;51.454;13.862;2024-02-23T09:16:11;9.40;98.50
18047;DHT22;9148;51.454;13.862;2024-02-23T09:18:37;9.50;98.50
18047;DHT22;9148;51.454;13.862;2024-02-23T09:21:03;9.60;98.40
18047;DHT22;9148;51.454;13.862;2024-02-23T09:23:29;9.80;98.20
18047;DHT22;9148;51.454;13.862;2024-02-23T09:25:54;10.10;98.20
18047;DHT22;9148;51.454;13.862;2024-02-23T09:28:20;10.30;97.80
18047;DHT22;9148;51.454;13.862;2024-02-23T09:30:46;10.50;97.50
18047;DHT22;9148;51.454;13.862;2024-02-23T09:33:12;10.70;96.80
18047;DHT22;9148;51.454;13.862;2024-02-23T09:35:37;11.30;96.10
18047;DHT22;9148;51.454;13.862;2024-02-23T09:38:03;11.10;95.40
18047;DHT22;9148;51.454;13.862;2024-02-23T09:40:29;11.30;94.40
18047;DHT22;9148;51.454;13.862;2024-02-23T09:42:58;11.50;93.80
18047;DHT22;9148;51.454;13.862;2024-02-23T09:45:25;11.80;93.60
18047;DHT22;9148;51.454;13.862;2024-02-23T09:47:53;12.10;92.80
18047;DHT22;9148;51.454;13.862;2024-02-23T09:50:22;12.50;91.90
18047;DHT22;9148;51.454;13.862;2024-02-23T09:52:49;12.70;91.60
18047;DHT22;9148;51.454;13.862;2024-02-23T09:55:17;12.90;91.00
18047;DHT22;9148;51.454;13.862;2024-02-23T09:57:44;13.00;88.30
18047;DHT22;9148;51.454;13.862;2024-02-23T10:00:12;13.00;87.20
18047;DHT22;9148;51.454;13.862;2024-02-23T10:02:39;13.00;86.00
18047;DHT22;9148;51.454;13.862;2024-02-23T10:05:06;13.00;85.00
18047;DHT22;9148;51.454;13.862;2024-02-23T10:07:33;13.00;83.60
18047;DHT22;9148;51.454;13.862;2024-02-23T10:09:58;13.10;83.90
18047;DHT22;9148;51.454;13.862;2024-02-23T10:12:24;13.10;82.10
18047;DHT22;9148;51.454;13.862;2024-02-23T10:14:50;13.10;80.50
18047;DHT22;9148;51.454;13.862;2024-02-23T10:17:15;13.10;80.40
18047;DHT22;9148;51.454;13.862;2024-02-23T10:19:41;13.10;81.10
18047;DHT22;9148;51.454;13.862;2024-02-23T10:22:07;13.20;82.00
18047;DHT22;9148;51.454;13.862;2024-02-23T10:24:32;13.30;82.10
18047;DHT22;9148;51.454;13.862;2024-02-23T10:26:58;13.50;80.50
18047;DHT22;9148;51.454;13.862;2024-02-23T10:29:26;13.70;80.50
18047;DHT22;9148;51.454;13.862;2024-02-23T10:31:52;13.80;77.80
18047;DHT22;9148;51.454;13.862;2024-02-23T10:34:19;13.90;77.90
18047;DHT22;9148;51.454;13.862;2024-02-23T10:36:46;14.10;77.60
18047;DHT22;9148;51.454;13.862;2024-02-23T10:39:17;14.40;71.60
18047;DHT22;9148;51.454;13.862;2024-02-23T10:41:47;14.40;70.30
18047;DHT22;9148;51.454;13.862;2024-02-23T10:44:20;14.30;69.70
18047;DHT22;9148;51.454;13.862;2024-02-23T10:46:46;14.10;69.00
18047;DHT22;9148;51.454;13.862;2024-02-23T10:49:14;14.00;69.60
18047;DHT22;9148;51.454;13.862;2024-02-23T10:51:41;13.80;69.90
18047;DHT22;9148;51.454;13.862;2024-02-23T10:54:07;13.90;71.50
18047;DHT22;9148;51.454;13.862;2024-02-23T10:56:33;14.00;68.10
18047;DHT22;9148;51.454;13.862;2024-02-23T10:58:59;14.00;65.00
18047;DHT22;9148;51.454;13.862;2024-02-23T11:01:25;13.90;65.20
18047;DHT22;9148;51.454;13.862;2024-02-23T11:03:51;13.70;66.00
18047;DHT22;9148;51.454;13.862;2024-02-23T11:06:19;13.60;65.90
18047;DHT22;9148;51.454;13.862;2024-02-23T11:08:47;13.60;67.10
18047;DHT22;9148;51.454;13.862;2024-02-23T11:11:15;13.50;67.00
18047;DHT22;9148;51.454;13.862;2024-02-23T11:13:43;13.30;66.70
18047;DHT22;9148;51.454;13.862;2024-02-23T11:16:10;13.00;67.70
18047;DHT22;9148;51.454;13.862;2024-02-23T11:18:37;12.80;69.00
18047;DHT22;9148;51.454;13.862;2024-02-23T11:21:05;12.50;69.20
18047;DHT22;9148;51.454;13.862;2024-02-23T11:23:47;12.30;70.00
18047;DHT22;9148;51.454;13.862;2024-02-23T11:26:15;12.10;71.60
18047;DHT22;9148;51.454;13.862;2024-02-23T11:28:51;12.00;71.70
18047;DHT22;9148;51.454;13.862;2024-02-23T11:31:24;11.90;72.50
18047;DHT22;9148;51.454;13.862;2024-02-23T11:33:54;11.90;72.90
18047;DHT22;9148;51.454;13.862;2024-02-23T11:36:32;11.90;73.40
18047;DHT22;9148;51.454;13.862;2024-02-23T11:38:59;12.00;74.10
18047;DHT22;9148;51.454;13.862;2024-02-23T11:41:27;12.00;73.50
18047;DHT22;9148;51.454;13.862;2024-02-23T11:43:54;12.20;74.50
18047;DHT22;9148;51.454;13.862;2024-02-23T11:46:21;12.30;74.90
18047;DHT22;9148;51.454;13.862;2024-02-23T11:48:47;12.50;75.40
18047;DHT22;9148;51.454;13.862;2024-02-23T11:51:19;12.60;75.60
18047;DHT22;9148;51.454;13.862;2024-02-23T11:53:46;12.60;75.50
18047;DHT22;9148;51.454;13.862;2024-02-23T11:56:12;12.60;74.10
18047;DHT22;9148;51.454;13.862;2024-02-23T11:58:40;12.50;74.70
18047;DHT22;9148;51.454;13.862;2024-02-23T12:01:06;12.50;75.40
18047;DHT22;9148;51.454;13.862;2024-02-23T12:03:32;12.50;76.40
18047;DHT22;9148;51.454;13.862;2024-02-23T12:06:01;12.50;75.00
18047;DHT22;9148;51.454;13.862;2024-02-23T12:08:29;12.40;75.20
18047;DHT22;9148;51.454;13.862;2024-02-23T12:10:57;12.30;76.50
18047;DHT22;9148;51.454;13.862;2024-02-23T12:13:26;12.40;77.30
18047;DHT22;9148;51.454;13.862;2024-02-23T12:15:54;12.40;76.20
18047;DHT22;9148;51.454;13.862;2024-02-23T12:18:24;12.50;75.60
18047;DHT22;9148;51.454;13.862;2024-02-23T12:21:05;12.40;76.70
18047;DHT22;9148;51.454;13.862;2024-02-23T12:23:45;12.50;76.10
18047;DHT22;9148;51.454;13.862;2024-02-23T12:26:13;12.50;76.10
18047;DHT22;9148;51.454;13.862;2024-02-23T12:28:40;12.50;75.20
18047;DHT22;9148;51.454;13.862;2024-02-23T12:31:06;12.50;75.00
18047;DHT22;9148;51.454;13.862;2024-02-23T12:33:34;12.50;74.50
18047;DHT22;9148;51.454;13.862;2024-02-23T12:36:03;12.50;74.90
18047;DHT22;9148;51.454;13.862;2024-02-23T12:38:30;12.50;73.80
18047;DHT22;9148;51.454;13.862;2024-02-23T12:40:56;12.50;74.40
18047;DHT22;9148;51.454;13.862;2024-02-23T12:43:22;12.60;75.00
18047;DHT22;9148;51.454;13.862;2024-02-23T12:45:54;12.60;73.40
18047;DHT22;9148;51.454;13.862;2024-02-23T12:48:21;12.60;71.80
18047;DHT22;9148;51.454;13.862;2024-02-23T12:50:48;12.50;71.60
18047;DHT22;9148;51.454;13.862;2024-02-23T12:53:39;12.40;71.80
18047;DHT22;9148;51.454;13.862;2024-02-23T12:56:13;12.40;71.20
18047;DHT22;9148;51.454;13.862;2024-02-23T12:58:42;12.50;70.50
18047;DHT22;9148;51.454;13.862;2024-02-23T13:01:09;12.60;70.70
18047;DHT22;9148;51.454;13.862;2024-02-23T13:03:36;12.80;70.10
18047;DHT22;9148;51.454;13.862;2024-02-23T13:06:03;12.90;69.40
18047;DHT22;9148;51.454;13.862;2024-02-23T13:08:30;13.10;68.50
18047;DHT22;9148;51.454;13.862;2024-02-23T13:10:57;13.30;69.30
18047;DHT22;9148;51.454;13.862;2024-02-23T13:13:23;13.50;66.90
18047;DHT22;9148;51.454;13.862;2024-02-23T13:15:50;13.60;67.00
18047;DHT22;9148;51.454;13.862;2024-02-23T13:18:17;13.50;66.20
18047;DHT22;9148;51.454;13.862;2024-02-23T13:20:43;13.30;66.10
18047;DHT22;9148;51.454;13.862;2024-02-23T13:23:09;13.10;66.60
18047;DHT22;9148;51.454;13.862;2024-02-23T13:25:37;13.00;66.30
18047;DHT22;9148;51.454;13.862;2024-02-23T13:28:03;12.80;66.70
18047;DHT22;9148;51.454;13.862;2024-02-23T13:30:30;12.70;66.50
18047;DHT22;9148;51.454;13.862;2024-02-23T13:32:56;12.50;67.00
18047;DHT22;9148;51.454;13.862;2024-02-23T13:35:22;12.30;67.50
18047;DHT22;9148;51.454;13.862;2024-02-23T13:37:48;12.10;68.00
18047;DHT22;9148;51.454;13.862;2024-02-23T13:40:14;12.00;67.00
18047;DHT22;9148;51.454;13.862;2024-02-23T13:42:40;11.90;68.50
18047;DHT22;9148;51.454;13.862;2024-02-23T13:45:06;11.80;68.70
18047;DHT22;9148;51.454;13.862;2024-02-23T13:47:33;11.80;67.80
18047;DHT22;9148;51.454;13.862;2024-02-23T13:50:00;11.80;68.00
18047;DHT22;9148;51.454;13.862;2024-02-23T13:52:29;11.80;67.20
18047;DHT22;9148;51.454;13.862;2024-02-23T13:54:55;11.70;68.20
18047;DHT22;9148;51.454;13.862;2024-02-23T13:57:21;11.80;68.50
18047;DHT22;9148;51.454;13.862;2024-02-23T13:59:47;11.80;67.60
18047;DHT22;9148;51.454;13.862;2024-02-23T14:02:13;11.80;68.90
18047;DHT22;9148;51.454;13.862;2024-02-23T14:04:38;11.80;68.90
18047;DHT22;9148;51.454;13.862;2024-02-23T14:07:04;11.70;69.10
18047;DHT22;9148;51.454;13.862;2024-02-23T14:09:30;11.70;69.60
18047;DHT22;9148;51.454;13.862;2024-02-23T14:11:56;11.60;69.90
18047;DHT22;9148;51.454;13.862;2024-02-23T14:14:22;11.60;69.90
18047;DHT22;9148;51.454;13.862;2024-02-23T14:16:49;11.40;70.30
18047;DHT22;9148;51.454;13.862;2024-02-23T14:19:14;11.20;70.80
18047;DHT22;9148;51.454;13.862;2024-02-23T14:21:40;11.20;71.20
18047;DHT22;9148;51.454;13.862;2024-02-23T14:24:06;11.00;71.50
18047;DHT22;9148;51.454;13.862;2024-02-23T14:26:32;10.90;72.00
18047;DHT22;9148;51.454;13.862;2024-02-23T14:28:58;10.90;72.50
18047;DHT22;9148;51.454;13.862;2024-02-23T14:31:24;10.80;72.70
18047;DHT22;9148;51.454;13.862;2024-02-23T14:33:51;10.80;73.40
18047;DHT22;9148;51.454;13.862;2024-02-23T14:36:18;11.00;74.20
18047;DHT22;9148;51.454;13.862;2024-02-23T14:38:43;10.70;74.70
18047;DHT22;9148;51.454;13.862;2024-02-23T14:41:09;10.60;74.90
18047;DHT22;9148;51.454;13.862;2024-02-23T14:43:36;10.60;75.20
18047;DHT22;9148;51.454;13.862;2024-02-23T14:46:02;11.30;76.00
18047;DHT22;9148;51.454;13.862;2024-02-23T14:48:29;10.50;75.70
18047;DHT22;9148;51.454;13.862;2024-02-23T14:50:54;10.50;76.00
18047;DHT22;9148;51.454;13.862;2024-02-23T14:53:20;10.50;76.40
18047;DHT22;9148;51.454;13.862;2024-02-23T14:55:46;10.50;76.70
18047;DHT22;9148;51.454;13.862;2024-02-23T14:58:12;10.50;76.90
18047;DHT22;9148;51.454;13.862;2024-02-23T15:00:38;10.50;77.30
18047;DHT22;9148;51.454;13.862;2024-02-23T15:03:04;10.50;77.80
18047;DHT22;9148;51.454;13.862;2024-02-23T15:05:30;10.60;78.40
18047;DHT22;9148;51.454;13.862;2024-02-23T15:07:56;10.60;78.60
18047;DHT22;9148;51.454;13.862;2024-02-23T15:10:21;10.60;79.10
18047;DHT22;9148;51.454;13.862;2024-02-23T15:12:47;10.50;79.40
18047;DHT22;9148;51.454;13.862;2024-02-23T15:15:13;10.60;79.60
18047;DHT22;9148;51.454;13.862;2024-02-23T15:17:39;10.60;79.60
18047;DHT22;9148;51.454;13.862;2024-02-23T15:20:07;10.50;79.70
18047;DHT22;9148;51.454;13.862;2024-02-23T15:22:34;10.50;80.00
18047;DHT22;9148;51.454;13.862;2024-02-23T15:25:00;10.50;80.50
18047;DHT22;9148;51.454;13.862;2024-02-23T15:27:26;10.40;81.20
18047;DHT22;9148;51.454;13.862;2024-02-23T15:29:51;10.40;81.40
18047;DHT22;9148;51.454;13.862;2024-02-23T15:32:17;10.50;82.30